| time (UTC) | temp F | wind direction | speed MPH | gust MPH | rain 1hr in | rain 24hr in | rain mn in | humidity % | barometer mb |
| 20260510093305 | 50 | 0 | 0.0 | 0.0 | 0.00 | 0.34 | 0.06 | 95 | 1011.0 |
| 20260510093005 | 50 | 0 | 0.0 | 0.0 | 0.00 | 0.34 | 0.06 | 95 | 1010.9 |
| 20260510092704 | 50 | 0 | 0.0 | 0.0 | 0.00 | 0.34 | 0.06 | 95 | 1010.9 |
| 20260510092404 | 51 | 0 | 0.0 | 0.0 | 0.01 | 0.34 | 0.06 | 95 | 1010.9 |
| 20260510092104 | 51 | 0 | 0.0 | 0.0 | 0.01 | 0.34 | 0.06 | 95 | 1010.7 |
| 20260510091804 | 51 | 0 | 0.0 | 0.0 | 0.01 | 0.34 | 0.06 | 95 | 1010.7 |
| 20260510091504 | 51 | 0 | 0.0 | 0.0 | 0.01 | 0.34 | 0.06 | 95 | 1010.7 |
| 20260510091204 | 51 | 0 | 0.0 | 0.0 | 0.01 | 0.34 | 0.06 | 95 | 1010.8 |
| 20260510090605 | 52 | 0 | 0.0 | 0.0 | 0.01 | 0.34 | 0.06 | 95 | 1010.6 |
| 20260510090005 | 52 | 0 | 0.0 | 1.0 | 0.01 | 0.34 | 0.06 | 95 | 1010.5 |
| 20260510085704 | 52 | 0 | 0.0 | 1.0 | 0.01 | 0.34 | 0.06 | 95 | 1010.4 |
| 20260510085405 | 52 | 0 | 0.0 | 2.0 | 0.01 | 0.35 | 0.06 | 95 | 1010.4 |
| 20260510084805 | 52 | 0 | 0.0 | 2.0 | 0.01 | 0.35 | 0.06 | 95 | 1010.2 |
| 20260510083904 | 52 | 0 | 0.0 | 0.0 | 0.01 | 0.35 | 0.06 | 95 | 1010.0 |
| 20260510083605 | 52 | 0 | 0.0 | 0.0 | 0.01 | 0.35 | 0.06 | 95 | 1010.2 |
| 20260510083304 | 52 | 0 | 0.0 | 0.0 | 0.01 | 0.35 | 0.06 | 95 | 1010.1 |
| 20260510083005 | 52 | 0 | 0.0 | 2.0 | 0.01 | 0.35 | 0.06 | 95 | 1010.2 |
| 20260510082705 | 52 | 0 | 0.0 | 2.0 | 0.01 | 0.35 | 0.06 | 95 | 1010.2 |
| 20260510082404 | 52 | 0 | 0.0 | 2.0 | 0.00 | 0.34 | 0.05 | 95 | 1010.1 |
| 20260510081804 | 53 | 0 | 0.0 | 1.0 | 0.00 | 0.34 | 0.05 | 95 | 1010.0 |
| 20260510081504 | 53 | 0 | 0.0 | 1.0 | 0.00 | 0.34 | 0.05 | 95 | 1010.1 |
| 20260510081205 | 53 | 0 | 0.0 | 1.0 | 0.00 | 0.34 | 0.05 | 95 | 1010.1 |
| 20260510080904 | 53 | 0 | 0.0 | 1.0 | 0.00 | 0.34 | 0.05 | 95 | 1010.0 |
| 20260510075704 | 53 | 356 | 1.0 | 4.0 | 0.01 | 0.34 | 0.05 | 95 | 1009.9 |
| 20260510075105 | 53 | 338 | 1.0 | 4.0 | 0.01 | 0.34 | 0.05 | 95 | 1009.8 |
| 20260510074804 | 53 | 0 | 0.0 | 4.0 | 0.01 | 0.34 | 0.05 | 95 | 1009.5 |
| 20260510074504 | 53 | 0 | 0.0 | 0.0 | 0.01 | 0.34 | 0.05 | 95 | 1009.6 |
| 20260510074205 | 53 | 0 | 0.0 | 0.0 | 0.01 | 0.34 | 0.05 | 95 | 1009.5 |
| 20260510073905 | 53 | 0 | 0.0 | 0.0 | 0.01 | 0.34 | 0.05 | 95 | 1009.5 |
| 20260510073604 | 53 | 0 | 0.0 | 0.0 | 0.01 | 0.34 | 0.05 | 94 | 1009.6 |
| 20260510073304 | 53 | 0 | 0.0 | 0.0 | 0.01 | 0.34 | 0.05 | 94 | 1009.5 |
| 20260510072704 | 53 | 0 | 0.0 | 0.0 | 0.02 | 0.34 | 0.05 | 95 | 1009.6 |
| 20260510072404 | 53 | 0 | 0.0 | 0.0 | 0.02 | 0.34 | 0.05 | 95 | 1009.6 |
| 20260510071804 | 54 | 0 | 0.0 | 0.0 | 0.02 | 0.34 | 0.05 | 95 | 1009.5 |
| 20260510071505 | 54 | 0 | 0.0 | 0.0 | 0.02 | 0.34 | 0.05 | 95 | 1009.5 |
| 20260510071205 | 54 | 0 | 0.0 | 0.0 | 0.02 | 0.34 | 0.05 | 94 | 1009.6 |
| 20260510070604 | 54 | 0 | 0.0 | 1.0 | 0.02 | 0.34 | 0.05 | 95 | 1009.6 |
| 20260510070005 | 54 | 0 | 0.0 | 2.0 | 0.01 | 0.33 | 0.04 | 95 | 1009.6 |
| 20260510065705 | 54 | 0 | 0.0 | 2.0 | 0.02 | 0.33 | 0.04 | 94 | 1009.4 |
| 20260510065404 | 54 | 0 | 0.0 | 2.0 | 0.02 | 0.33 | 0.04 | 94 | 1009.4 |
| 20260510065104 | 54 | 0 | 0.0 | 2.0 | 0.02 | 0.33 | 0.04 | 95 | 1009.4 |
| 20260510064804 | 54 | 62 | 1.0 | 3.0 | 0.02 | 0.33 | 0.04 | 95 | 1009.4 |
| 20260510064504 | 54 | 113 | 1.0 | 3.0 | 0.02 | 0.33 | 0.04 | 95 | 1009.3 |
| 20260510064204 | 54 | 119 | 1.0 | 3.0 | 0.02 | 0.33 | 0.04 | 94 | 1009.3 |
| 20260510063904 | 55 | 113 | 1.0 | 3.0 | 0.03 | 0.33 | 0.04 | 94 | 1009.4 |
| 20260510063605 | 55 | 107 | 1.0 | 3.0 | 0.03 | 0.33 | 0.04 | 94 | 1009.3 |
| 20260510063304 | 55 | 118 | 1.0 | 3.0 | 0.03 | 0.33 | 0.04 | 94 | 1009.3 |
| 20260510062704 | 55 | 114 | 1.0 | 3.0 | 0.02 | 0.32 | 0.03 | 94 | 1009.4 |
| 20260510062404 | 55 | 75 | 1.0 | 2.0 | 0.02 | 0.32 | 0.03 | 94 | 1009.3 |
| 20260510062104 | 55 | 80 | 1.0 | 3.0 | 0.02 | 0.32 | 0.03 | 94 | 1009.4 |
| 20260510061804 | 55 | 98 | 1.0 | 3.0 | 0.02 | 0.32 | 0.03 | 94 | 1009.4 |
| 20260510061504 | 55 | 124 | 2.0 | 5.0 | 0.02 | 0.32 | 0.03 | 94 | 1009.3 |
| 20260510060905 | 56 | 140 | 3.0 | 5.0 | 0.02 | 0.32 | 0.03 | 95 | 1009.3 |
| 20260510060604 | 56 | 146 | 3.0 | 5.0 | 0.02 | 0.32 | 0.03 | 95 | 1009.3 |
| 20260510060304 | 56 | 154 | 3.0 | 6.0 | 0.02 | 0.32 | 0.03 | 95 | 1009.5 |
| 20260510055704 | 56 | 168 | 3.0 | 6.0 | 0.01 | 0.31 | 0.02 | 95 | 1009.6 |
| 20260510055404 | 56 | 173 | 3.0 | 6.0 | 0.01 | 0.31 | 0.02 | 95 | 1009.7 |
| 20260510055105 | 56 | 177 | 3.0 | 6.0 | 0.01 | 0.31 | 0.02 | 95 | 1009.6 |
| 20260510054805 | 56 | 181 | 4.0 | 6.0 | 0.01 | 0.31 | 0.02 | 95 | 1009.7 |
| 20260510054505 | 56 | 176 | 3.0 | 7.0 | 0.01 | 0.31 | 0.02 | 95 | 1009.6 |
| 20260510054205 | 56 | 168 | 2.0 | 7.0 | 0.01 | 0.31 | 0.02 | 95 | 1009.8 |
| 20260510053905 | 56 | 148 | 2.0 | 7.0 | 0.00 | 0.30 | 0.01 | 95 | 1009.8 |
| 20260510053604 | 56 | 240 | 2.0 | 7.0 | 0.00 | 0.30 | 0.01 | 95 | 1009.8 |
| 20260510053304 | 56 | 278 | 3.0 | 9.0 | 0.00 | 0.30 | 0.01 | 95 | 1009.9 |
| 20260510053004 | 56 | 288 | 3.0 | 9.0 | 0.01 | 0.30 | 0.01 | 95 | 1010.3 |
| 20260510052704 | 56 | 287 | 4.0 | 9.0 | 0.01 | 0.30 | 0.01 | 95 | 1010.7 |
| 20260510052404 | 56 | 282 | 4.0 | 9.0 | 0.01 | 0.30 | 0.01 | 95 | 1010.6 |
| 20260510052104 | 56 | 278 | 4.0 | 9.0 | 0.01 | 0.30 | 0.01 | 95 | 1010.8 |
| 20260510051804 | 55 | 274 | 3.0 | 9.0 | 0.01 | 0.30 | 0.01 | 95 | 1010.8 |
| 20260510051504 | 55 | 291 | 1.0 | 7.0 | 0.01 | 0.30 | 0.01 | 95 | 1010.6 |
| 20260510051204 | 55 | 140 | 1.0 | 3.0 | 0.01 | 0.30 | 0.01 | 94 | 1010.2 |
| 20260510050604 | 55 | 0 | 0.0 | 0.0 | 0.01 | 0.30 | 0.01 | 94 | 1009.3 |
| 20260510050305 | 55 | 0 | 0.0 | 0.0 | 0.01 | 0.30 | 0.01 | 94 | 1009.4 |
| 20260510050005 | 55 | 0 | 0.0 | 0.0 | 0.01 | 0.30 | 0.01 | 94 | 1009.3 |
| 20260510045704 | 55 | 0 | 0.0 | 0.0 | 0.01 | 0.30 | 0.01 | 94 | 1009.2 |
| 20260510045404 | 55 | 0 | 0.0 | 0.0 | 0.01 | 0.30 | 0.01 | 94 | 1009.3 |
| 20260510045105 | 55 | 0 | 0.0 | 0.0 | 0.02 | 0.30 | 0.01 | 94 | 1009.2 |
| 20260510044804 | 55 | 131 | 1.0 | 3.0 | 0.02 | 0.30 | 0.01 | 94 | 1009.2 |
| 20260510044505 | 56 | 131 | 1.0 | 3.0 | 0.02 | 0.30 | 0.01 | 94 | 1009.3 |
| 20260510044204 | 56 | 131 | 1.0 | 3.0 | 0.02 | 0.30 | 0.01 | 94 | 1009.2 |
| 20260510043904 | 56 | 131 | 1.0 | 2.0 | 0.02 | 0.30 | 0.01 | 94 | 1009.3 |
| 20260510043604 | 56 | 134 | 1.0 | 3.0 | 0.02 | 0.30 | 0.01 | 94 | 1009.2 |
| 20260510043304 | 56 | 135 | 1.0 | 4.0 | 0.02 | 0.30 | 0.01 | 94 | 1009.2 |
| 20260510043005 | 56 | 132 | 1.0 | 4.0 | 0.02 | 0.29 | 0.00 | 94 | 1009.2 |
| 20260510042704 | 56 | 118 | 1.0 | 4.0 | 0.02 | 0.29 | 0.00 | 94 | 1009.3 |
| 20260510042405 | 56 | 23 | 1.0 | 3.0 | 0.02 | 0.29 | 0.00 | 94 | 1009.3 |
| 20260510041805 | 57 | 3 | 1.0 | 2.0 | 0.03 | 0.29 | 0.00 | 94 | 1009.3 |
| 20260510041505 | 57 | 353 | 1.0 | 3.0 | 0.03 | 0.29 | 0.00 | 94 | 1009.4 |
| 20260510041204 | 57 | 355 | 1.0 | 3.0 | 0.03 | 0.29 | 0.00 | 94 | 1009.4 |
| 20260510040904 | 57 | 67 | 1.0 | 3.0 | 0.03 | 0.29 | 0.00 | 94 | 1009.3 |
| 20260510040604 | 57 | 175 | 2.0 | 4.0 | 0.03 | 0.29 | 0.00 | 94 | 1009.3 |
| 20260510040305 | 57 | 193 | 2.0 | 5.0 | 0.03 | 0.29 | 0.00 | 94 | 1009.3 |
| 20260510040008 | 57 | 189 | 2.0 | 5.0 | 0.04 | 0.29 | 0.00 | 94 | 1009.3 |
| 20260510035704 | 57 | 185 | 2.0 | 5.0 | 0.04 | 0.29 | 0.29 | 94 | 1009.2 |
| 20260510035404 | 57 | 41 | 1.0 | 5.0 | 0.05 | 0.29 | 0.29 | 94 | 1009.0 |
| 20260510035105 | 57 | 4 | 2.0 | 5.0 | 0.04 | 0.28 | 0.28 | 94 | 1009.2 |
| 20260510034804 | 57 | 5 | 2.0 | 5.0 | 0.04 | 0.28 | 0.28 | 94 | 1009.3 |
| 20260510034504 | 57 | 20 | 2.0 | 4.0 | 0.04 | 0.28 | 0.28 | 94 | 1009.0 |
| 20260510034204 | 57 | 25 | 1.0 | 3.0 | 0.04 | 0.28 | 0.28 | 94 | 1008.8 |
| 20260510033905 | 57 | 90 | 1.0 | 3.0 | 0.04 | 0.28 | 0.28 | 94 | 1008.6 |
| 20260510033604 | 57 | 121 | 1.0 | 3.0 | 0.04 | 0.28 | 0.28 | 93 | 1008.4 |
| 20260510033304 | 57 | 124 | 1.0 | 3.0 | 0.04 | 0.28 | 0.28 | 93 | 1008.4 |
| 20260510033005 | 57 | 112 | 1.0 | 3.0 | 0.03 | 0.27 | 0.27 | 93 | 1008.5 |
| 20260510032704 | 57 | 101 | 1.0 | 3.0 | 0.03 | 0.28 | 0.27 | 93 | 1008.8 |
| 20260510032404 | 57 | 0 | 0.0 | 2.0 | 0.03 | 0.28 | 0.27 | 93 | 1008.8 |
| 20260510031804 | 57 | 0 | 0.0 | 2.0 | 0.02 | 0.27 | 0.26 | 93 | 1008.8 |
| 20260510031504 | 57 | 0 | 0.0 | 2.0 | 0.02 | 0.27 | 0.26 | 93 | 1008.8 |
| 20260510031204 | 57 | 51 | 1.0 | 2.0 | 0.02 | 0.27 | 0.26 | 93 | 1008.7 |
| 20260510030304 | 57 | 61 | 1.0 | 2.0 | 0.02 | 0.27 | 0.26 | 93 | 1008.4 |
| 20260510030005 | 57 | 0 | 0.0 | 2.0 | 0.01 | 0.26 | 0.25 | 93 | 1008.6 |
| 20260510022705 | 57 | 145 | 1.0 | 4.0 | 0.07 | 0.25 | 0.24 | 92 | 1008.9 |
| 20260510022404 | 57 | 157 | 1.0 | 4.0 | 0.10 | 0.25 | 0.24 | 92 | 1008.8 |
| 20260510022104 | 57 | 164 | 1.0 | 4.0 | 0.12 | 0.25 | 0.24 | 92 | 1008.9 |
| 20260510021804 | 57 | 164 | 1.0 | 2.0 | 0.15 | 0.25 | 0.24 | 92 | 1008.9 |
| 20260510021504 | 57 | 163 | 1.0 | 1.0 | 0.15 | 0.25 | 0.24 | 91 | 1008.9 |
| 20260510021204 | 57 | 163 | 1.0 | 2.0 | 0.15 | 0.25 | 0.24 | 91 | 1009.0 |
| 20260510020904 | 57 | 164 | 1.0 | 4.0 | 0.15 | 0.25 | 0.24 | 91 | 1009.0 |
| 20260510020604 | 57 | 163 | 1.0 | 4.0 | 0.15 | 0.25 | 0.24 | 90 | 1009.0 |
| 20260510020305 | 57 | 164 | 1.0 | 4.0 | 0.15 | 0.25 | 0.24 | 90 | 1009.0 |
| 20260510020005 | 57 | 164 | 1.0 | 4.0 | 0.15 | 0.25 | 0.24 | 90 | 1009.1 |
| 20260510015704 | 57 | 164 | 1.0 | 4.0 | 0.15 | 0.25 | 0.24 | 90 | 1009.2 |
| 20260510015404 | 58 | 0 | 0.0 | 2.0 | 0.15 | 0.25 | 0.24 | 89 | 1009.1 |
| 20260510015104 | 58 | 0 | 0.0 | 2.0 | 0.15 | 0.25 | 0.24 | 89 | 1009.0 |
| 20260510014805 | 58 | 0 | 0.0 | 1.0 | 0.15 | 0.25 | 0.24 | 88 | 1009.0 |
| 20260510014505 | 58 | 168 | 1.0 | 6.0 | 0.15 | 0.25 | 0.24 | 88 | 1009.0 |
| 20260510014205 | 58 | 177 | 2.0 | 6.0 | 0.14 | 0.24 | 0.23 | 87 | 1008.9 |
| 20260510013904 | 58 | 191 | 3.0 | 7.0 | 0.13 | 0.23 | 0.22 | 86 | 1008.7 |
| 20260510013604 | 58 | 225 | 3.0 | 8.0 | 0.12 | 0.22 | 0.21 | 86 | 1008.8 |
| 20260510013304 | 58 | 262 | 2.0 | 8.0 | 0.11 | 0.21 | 0.20 | 85 | 1009.0 |
| 20260510013005 | 59 | 291 | 2.0 | 8.0 | 0.09 | 0.19 | 0.18 | 84 | 1009.1 |
| 20260510012704 | 60 | 307 | 2.0 | 14.0 | 0.07 | 0.17 | 0.16 | 82 | 1009.1 |
| 20260510012405 | 60 | 302 | 3.0 | 14.0 | 0.05 | 0.15 | 0.14 | 79 | 1009.0 |
| 20260510012104 | 61 | 299 | 4.0 | 14.0 | 0.02 | 0.12 | 0.11 | 75 | 1008.8 |
| 20260510011204 | 64 | 312 | 5.0 | 16.0 | 0.00 | 0.10 | 0.09 | 66 | 1008.4 |
| 20260510010904 | 66 | 305 | 5.0 | 16.0 | 0.00 | 0.10 | 0.09 | 63 | 1008.0 |
| 20260510010604 | 66 | 291 | 5.0 | 16.0 | 0.00 | 0.10 | 0.09 | 61 | 1007.9 |
| 20260510010304 | 67 | 280 | 4.0 | 10.0 | 0.00 | 0.10 | 0.09 | 58 | 1007.4 |
| 20260510010005 | 67 | 266 | 3.0 | 10.0 | 0.00 | 0.10 | 0.09 | 57 | 1007.0 |
| 20260510005705 | 67 | 256 | 2.0 | 10.0 | 0.00 | 0.10 | 0.09 | 57 | 1006.6 |
| 20260510005405 | 67 | 248 | 2.0 | 8.0 | 0.00 | 0.10 | 0.09 | 57 | 1006.4 |
| 20260510005104 | 67 | 260 | 4.0 | 11.0 | 0.00 | 0.10 | 0.09 | 56 | 1006.2 |
| 20260510004804 | 67 | 265 | 3.0 | 11.0 | 0.00 | 0.11 | 0.09 | 56 | 1006.3 |
| 20260510004505 | 67 | 270 | 3.0 | 11.0 | 0.00 | 0.11 | 0.09 | 56 | 1006.2 |
| 20260510004204 | 67 | 279 | 2.0 | 6.0 | 0.00 | 0.11 | 0.09 | 57 | 1006.3 |
| 20260510003604 | 67 | 261 | 3.0 | 10.0 | 0.00 | 0.11 | 0.09 | 56 | 1006.4 |
| 20260510003304 | 67 | 267 | 4.0 | 10.0 | 0.00 | 0.11 | 0.09 | 56 | 1006.3 |
| 20260510003004 | 67 | 270 | 5.0 | 11.0 | 0.00 | 0.11 | 0.09 | 56 | 1006.4 |
| 20260510002705 | 67 | 267 | 6.0 | 12.0 | 0.00 | 0.11 | 0.09 | 57 | 1006.5 |
| 20260510002404 | 67 | 258 | 6.0 | 12.0 | 0.00 | 0.11 | 0.09 | 55 | 1006.4 |
| 20260510002104 | 68 | 252 | 6.0 | 14.0 | 0.00 | 0.11 | 0.09 | 55 | 1006.4 |
| 20260510001804 | 68 | 255 | 5.0 | 14.0 | 0.00 | 0.11 | 0.09 | 55 | 1006.5 |
| 20260510001504 | 68 | 260 | 5.0 | 14.0 | 0.00 | 0.11 | 0.09 | 55 | 1006.4 |
| 20260510001204 | 68 | 256 | 5.0 | 12.0 | 0.00 | 0.11 | 0.09 | 55 | 1006.5 |
| 20260510000904 | 68 | 255 | 5.0 | 12.0 | 0.00 | 0.11 | 0.09 | 55 | 1006.5 |
| 20260510000605 | 68 | 251 | 6.0 | 12.0 | 0.00 | 0.11 | 0.09 | 55 | 1006.4 |
| 20260509235704 | 68 | 264 | 5.0 | 9.0 | 0.00 | 0.11 | 0.09 | 55 | 1006.2 |
| 20260509235105 | 68 | 256 | 5.0 | 10.0 | 0.00 | 0.11 | 0.09 | 55 | 1006.1 |
| 20260509234805 | 68 | 258 | 5.0 | 11.0 | 0.00 | 0.11 | 0.09 | 55 | 1006.1 |
| 20260509234504 | 68 | 265 | 5.0 | 11.0 | 0.00 | 0.11 | 0.09 | 55 | 1006.2 |
| 20260509234204 | 68 | 261 | 6.0 | 12.0 | 0.00 | 0.11 | 0.09 | 54 | 1006.0 |
| 20260509233604 | 69 | 258 | 6.0 | 12.0 | 0.00 | 0.11 | 0.09 | 55 | 1006.1 |
| 20260509233304 | 69 | 265 | 5.0 | 12.0 | 0.00 | 0.11 | 0.09 | 54 | 1005.9 |
| 20260509233004 | 69 | 264 | 5.0 | 11.0 | 0.00 | 0.11 | 0.09 | 54 | 1005.8 |
| 20260509232104 | 69 | 263 | 6.0 | 15.0 | 0.00 | 0.11 | 0.09 | 53 | 1005.9 |
| 20260509231804 | 69 | 265 | 5.0 | 11.0 | 0.00 | 0.11 | 0.09 | 53 | 1005.7 |
| 20260509231504 | 69 | 270 | 6.0 | 14.0 | 0.00 | 0.11 | 0.09 | 54 | 1005.7 |
| 20260509231204 | 69 | 272 | 6.0 | 14.0 | 0.00 | 0.11 | 0.09 | 54 | 1005.8 |
| 20260509230304 | 69 | 261 | 6.0 | 13.0 | 0.00 | 0.11 | 0.09 | 53 | 1005.7 |
| 20260509230005 | 69 | 261 | 6.0 | 13.0 | 0.00 | 0.11 | 0.09 | 53 | 1005.7 |
| 20260509225704 | 69 | 261 | 6.0 | 17.0 | 0.00 | 0.11 | 0.09 | 53 | 1005.8 |
| 20260509225404 | 69 | 259 | 7.0 | 17.0 | 0.00 | 0.11 | 0.09 | 53 | 1005.8 |
| 20260509225105 | 69 | 259 | 7.0 | 17.0 | 0.00 | 0.11 | 0.09 | 53 | 1005.8 |
| 20260509224804 | 69 | 244 | 7.0 | 18.0 | 0.00 | 0.11 | 0.09 | 53 | 1006.0 |
| 20260509224504 | 70 | 252 | 7.0 | 18.0 | 0.00 | 0.11 | 0.09 | 52 | 1005.9 |
| 20260509223904 | 70 | 266 | 6.0 | 15.0 | 0.00 | 0.11 | 0.09 | 52 | 1006.0 |
| 20260509223604 | 70 | 263 | 6.0 | 14.0 | 0.00 | 0.11 | 0.09 | 53 | 1006.0 |
| 20260509223304 | 70 | 262 | 6.0 | 15.0 | 0.00 | 0.11 | 0.09 | 53 | 1006.1 |
| 20260509223005 | 70 | 262 | 5.0 | 15.0 | 0.00 | 0.11 | 0.09 | 53 | 1006.1 |
| 20260509222704 | 70 | 252 | 6.0 | 15.0 | 0.00 | 0.11 | 0.09 | 54 | 1006.0 |
| 20260509222404 | 70 | 249 | 6.0 | 13.0 | 0.00 | 0.11 | 0.09 | 53 | 1006.1 |
| 20260509222104 | 70 | 254 | 6.0 | 14.0 | 0.00 | 0.11 | 0.09 | 53 | 1006.1 |
| 20260509221804 | 70 | 256 | 8.0 | 19.0 | 0.00 | 0.11 | 0.09 | 53 | 1006.0 |
| 20260509220604 | 70 | 253 | 6.0 | 15.0 | 0.00 | 0.11 | 0.09 | 54 | 1006.3 |
| 20260509220305 | 70 | 263 | 7.0 | 15.0 | 0.00 | 0.11 | 0.09 | 54 | 1006.3 |
| 20260509220005 | 70 | 260 | 7.0 | 15.0 | 0.00 | 0.11 | 0.09 | 53 | 1006.3 |
| 20260509215704 | 70 | 252 | 7.0 | 15.0 | 0.00 | 0.11 | 0.09 | 54 | 1006.2 |
| 20260509215404 | 70 | 243 | 7.0 | 15.0 | 0.00 | 0.11 | 0.09 | 54 | 1006.2 |
| 20260509215104 | 70 | 251 | 6.0 | 15.0 | 0.00 | 0.11 | 0.09 | 54 | 1006.3 |
| 20260509214804 | 70 | 257 | 7.0 | 16.0 | 0.00 | 0.11 | 0.09 | 54 | 1006.1 |
| 20260509214504 | 70 | 253 | 8.0 | 18.0 | 0.00 | 0.11 | 0.09 | 56 | 1006.3 |
| 20260509214204 | 70 | 253 | 9.0 | 20.0 | 0.00 | 0.11 | 0.09 | 53 | 1006.2 |
| 20260509213904 | 70 | 253 | 9.0 | 20.0 | 0.00 | 0.11 | 0.09 | 53 | 1006.3 |
| 20260509213604 | 70 | 252 | 9.0 | 20.0 | 0.00 | 0.11 | 0.09 | 53 | 1006.4 |
| 20260509213304 | 70 | 240 | 7.0 | 15.0 | 0.00 | 0.11 | 0.09 | 54 | 1006.3 |
| 20260509213005 | 70 | 240 | 6.0 | 14.0 | 0.00 | 0.11 | 0.09 | 53 | 1006.3 |
| 20260509212704 | 70 | 244 | 6.0 | 14.0 | 0.00 | 0.11 | 0.09 | 54 | 1006.4 |
| 20260509212404 | 70 | 254 | 8.0 | 18.0 | 0.00 | 0.11 | 0.09 | 54 | 1006.3 |
| 20260509212104 | 70 | 258 | 9.0 | 18.0 | 0.00 | 0.11 | 0.09 | 53 | 1006.4 |
| 20260509211804 | 70 | 261 | 9.0 | 18.0 | 0.00 | 0.11 | 0.09 | 53 | 1006.4 |
| 20260509211504 | 70 | 265 | 8.0 | 17.0 | 0.00 | 0.11 | 0.09 | 52 | 1006.5 |
| 20260509211204 | 71 | 268 | 6.0 | 11.0 | 0.00 | 0.11 | 0.09 | 54 | 1006.5 |
| 20260509210904 | 71 | 261 | 6.0 | 14.0 | 0.00 | 0.11 | 0.09 | 53 | 1006.4 |
| 20260509210604 | 70 | 252 | 7.0 | 14.0 | 0.00 | 0.11 | 0.09 | 53 | 1006.4 |
| 20260509210005 | 70 | 252 | 9.0 | 17.0 | 0.00 | 0.11 | 0.09 | 54 | 1006.5 |
| 20260509205105 | 70 | 251 | 8.0 | 17.0 | 0.00 | 0.11 | 0.09 | 55 | 1006.3 |
| 20260509204804 | 70 | 249 | 8.0 | 17.0 | 0.00 | 0.11 | 0.09 | 55 | 1006.5 |
| 20260509204204 | 70 | 259 | 8.0 | 18.0 | 0.00 | 0.11 | 0.09 | 54 | 1006.5 |
| 20260509203904 | 70 | 264 | 8.0 | 18.0 | 0.00 | 0.11 | 0.09 | 57 | 1006.5 |
| 20260509203605 | 70 | 253 | 9.0 | 18.0 | 0.00 | 0.11 | 0.09 | 57 | 1006.5 |
| 20260509203304 | 70 | 250 | 9.0 | 18.0 | 0.00 | 0.11 | 0.09 | 56 | 1006.4 |
| 20260509203004 | 70 | 241 | 8.0 | 18.0 | 0.00 | 0.11 | 0.09 | 56 | 1006.5 |
| 20260509202705 | 70 | 242 | 8.0 | 18.0 | 0.00 | 0.11 | 0.09 | 56 | 1006.6 |
| 20260509202405 | 70 | 245 | 7.0 | 17.0 | 0.00 | 0.11 | 0.09 | 57 | 1006.7 |
| 20260509202104 | 70 | 248 | 7.0 | 17.0 | 0.00 | 0.11 | 0.09 | 56 | 1006.9 |
| 20260509201805 | 70 | 253 | 7.0 | 13.0 | 0.00 | 0.11 | 0.09 | 56 | 1006.8 |
| 20260509201205 | 69 | 251 | 8.0 | 18.0 | 0.00 | 0.11 | 0.09 | 60 | 1006.9 |
| 20260509200904 | 69 | 245 | 9.0 | 19.0 | 0.00 | 0.11 | 0.09 | 56 | 1006.9 |
| 20260509200604 | 69 | 230 | 7.0 | 19.0 | 0.00 | 0.11 | 0.09 | 57 | 1007.1 |
| 20260509200304 | 69 | 232 | 7.0 | 19.0 | 0.00 | 0.11 | 0.09 | 56 | 1007.2 |
| 20260509200005 | 70 | 239 | 7.0 | 13.0 | 0.00 | 0.11 | 0.09 | 57 | 1007.3 |
| 20260509195704 | 69 | 248 | 7.0 | 19.0 | 0.00 | 0.11 | 0.09 | 59 | 1007.1 |
| 20260509195405 | 69 | 253 | 8.0 | 19.0 | 0.00 | 0.11 | 0.09 | 59 | 1007.3 |
| 20260509195104 | 69 | 255 | 9.0 | 19.0 | 0.00 | 0.11 | 0.09 | 57 | 1007.4 |
| 20260509194804 | 68 | 250 | 8.0 | 16.0 | 0.00 | 0.11 | 0.09 | 60 | 1007.3 |
| 20260509194204 | 68 | 238 | 6.0 | 16.0 | 0.00 | 0.11 | 0.09 | 60 | 1007.6 |
| 20260509193904 | 68 | 233 | 6.0 | 16.0 | 0.00 | 0.11 | 0.09 | 61 | 1007.5 |
| 20260509193605 | 68 | 242 | 5.0 | 13.0 | 0.00 | 0.11 | 0.09 | 59 | 1007.6 |
| 20260509193304 | 68 | 247 | 5.0 | 13.0 | 0.00 | 0.11 | 0.09 | 60 | 1007.6 |
| 20260509193005 | 68 | 258 | 6.0 | 18.0 | 0.00 | 0.11 | 0.09 | 59 | 1007.5 |
| 20260509192705 | 68 | 254 | 7.0 | 18.0 | 0.00 | 0.11 | 0.09 | 61 | 1007.5 |
| 20260509192405 | 68 | 257 | 7.0 | 18.0 | 0.00 | 0.11 | 0.09 | 60 | 1007.6 |
| 20260509192104 | 68 | 242 | 6.0 | 13.0 | 0.00 | 0.11 | 0.09 | 60 | 1007.7 |
| 20260509191804 | 68 | 249 | 7.0 | 14.0 | 0.00 | 0.11 | 0.09 | 62 | 1007.6 |
| 20260509191504 | 68 | 241 | 7.0 | 19.0 | 0.00 | 0.11 | 0.09 | 62 | 1007.5 |
| 20260509190904 | 68 | 244 | 8.0 | 19.0 | 0.00 | 0.11 | 0.09 | 61 | 1007.7 |
| 20260509190604 | 68 | 245 | 8.0 | 15.0 | 0.00 | 0.11 | 0.09 | 62 | 1007.7 |
| 20260509190304 | 68 | 248 | 9.0 | 15.0 | 0.00 | 0.11 | 0.09 | 63 | 1007.9 |
| 20260509190006 | 67 | 253 | 8.0 | 14.0 | 0.00 | 0.11 | 0.09 | 63 | 1007.8 |
| 20260509185404 | 66 | 256 | 7.0 | 16.0 | 0.00 | 0.11 | 0.09 | 62 | 1007.9 |
| 20260509185104 | 67 | 254 | 6.0 | 16.0 | 0.00 | 0.11 | 0.09 | 64 | 1007.9 |
| 20260509184804 | 66 | 256 | 6.0 | 16.0 | 0.00 | 0.11 | 0.09 | 64 | 1008.0 |
| 20260509184204 | 66 | 245 | 8.0 | 22.0 | 0.00 | 0.11 | 0.09 | 64 | 1008.1 |
| 20260509183904 | 66 | 244 | 10.0 | 22.0 | 0.00 | 0.11 | 0.09 | 62 | 1008.0 |
| 20260509183304 | 67 | 260 | 9.0 | 19.0 | 0.00 | 0.11 | 0.09 | 63 | 1007.9 |
| 20260509183005 | 67 | 270 | 8.0 | 19.0 | 0.00 | 0.11 | 0.09 | 65 | 1008.0 |
| 20260509182703 | 66 | 235 | 7.0 | 14.0 | 0.00 | 0.11 | 0.09 | 68 | 1008.0 |
| 20260509182404 | 66 | 214 | 6.0 | 14.0 | 0.00 | 0.11 | 0.09 | 70 | 1008.0 |
| 20260509182104 | 65 | 223 | 7.0 | 14.0 | 0.00 | 0.11 | 0.09 | 68 | 1008.0 |
| 20260509181804 | 64 | 252 | 7.0 | 14.0 | 0.00 | 0.11 | 0.09 | 67 | 1008.0 |
| 20260509181504 | 65 | 263 | 6.0 | 14.0 | 0.00 | 0.11 | 0.09 | 67 | 1008.1 |
| 20260509181204 | 65 | 255 | 7.0 | 14.0 | 0.00 | 0.11 | 0.09 | 66 | 1008.1 |
| 20260509180904 | 65 | 253 | 6.0 | 15.0 | 0.00 | 0.11 | 0.09 | 69 | 1008.1 |
| 20260509180604 | 65 | 247 | 7.0 | 15.0 | 0.00 | 0.11 | 0.09 | 67 | 1008.1 |
| 20260509180304 | 65 | 260 | 8.0 | 15.0 | 0.00 | 0.11 | 0.09 | 68 | 1008.1 |
| 20260509180005 | 65 | 257 | 8.0 | 15.0 | 0.00 | 0.11 | 0.09 | 68 | 1008.2 |
| 20260509175704 | 65 | 261 | 8.0 | 17.0 | 0.00 | 0.11 | 0.09 | 68 | 1008.0 |
| 20260509175104 | 66 | 259 | 7.0 | 17.0 | 0.00 | 0.11 | 0.09 | 69 | 1008.2 |
| 20260509174804 | 66 | 229 | 6.0 | 15.0 | 0.00 | 0.11 | 0.09 | 69 | 1008.1 |
| 20260509174504 | 65 | 221 | 5.0 | 12.0 | 0.00 | 0.11 | 0.09 | 71 | 1008.2 |
| 20260509174204 | 65 | 227 | 6.0 | 16.0 | 0.00 | 0.11 | 0.09 | 69 | 1008.2 |
| 20260509173904 | 65 | 245 | 7.0 | 16.0 | 0.00 | 0.11 | 0.09 | 73 | 1008.2 |
| 20260509173604 | 64 | 238 | 8.0 | 16.0 | 0.00 | 0.11 | 0.09 | 72 | 1008.2 |
| 20260509173004 | 64 | 248 | 8.0 | 19.0 | 0.00 | 0.11 | 0.09 | 74 | 1008.3 |
| 20260509172704 | 63 | 256 | 8.0 | 19.0 | 0.00 | 0.11 | 0.09 | 74 | 1008.3 |
| 20260509172404 | 63 | 246 | 6.0 | 16.0 | 0.00 | 0.11 | 0.09 | 76 | 1008.2 |
| 20260509172104 | 62 | 243 | 6.0 | 13.0 | 0.00 | 0.11 | 0.09 | 76 | 1008.3 |
| 20260509171504 | 63 | 241 | 6.0 | 15.0 | 0.00 | 0.11 | 0.09 | 75 | 1008.4 |
| 20260509171204 | 63 | 244 | 7.0 | 15.0 | 0.00 | 0.11 | 0.09 | 76 | 1008.4 |
| 20260509170905 | 63 | 249 | 7.0 | 15.0 | 0.00 | 0.11 | 0.09 | 74 | 1008.3 |
| 20260509170604 | 63 | 260 | 6.0 | 13.0 | 0.00 | 0.11 | 0.09 | 76 | 1008.3 |
| 20260509170304 | 62 | 261 | 6.0 | 13.0 | 0.00 | 0.11 | 0.09 | 77 | 1008.3 |
| 20260509165704 | 62 | 255 | 6.0 | 14.0 | 0.00 | 0.11 | 0.09 | 77 | 1008.5 |
| 20260509165404 | 62 | 252 | 6.0 | 14.0 | 0.00 | 0.11 | 0.09 | 77 | 1008.5 |
| 20260509165104 | 62 | 247 | 5.0 | 11.0 | 0.00 | 0.11 | 0.09 | 77 | 1008.4 |
| 20260509164804 | 62 | 227 | 4.0 | 9.0 | 0.00 | 0.11 | 0.09 | 77 | 1008.3 |
| 20260509164205 | 62 | 220 | 5.0 | 15.0 | 0.00 | 0.11 | 0.09 | 79 | 1008.3 |
| 20260509163904 | 61 | 230 | 6.0 | 17.0 | 0.00 | 0.11 | 0.09 | 78 | 1008.3 |
| 20260509163604 | 61 | 241 | 6.0 | 17.0 | 0.00 | 0.11 | 0.09 | 80 | 1008.2 |
| 20260509163304 | 61 | 252 | 6.0 | 17.0 | 0.00 | 0.11 | 0.09 | 79 | 1008.3 |
| 20260509162704 | 60 | 264 | 5.0 | 13.0 | 0.00 | 0.11 | 0.09 | 82 | 1008.4 |
| 20260509162404 | 60 | 267 | 5.0 | 13.0 | 0.00 | 0.11 | 0.09 | 82 | 1008.4 |
| 20260509162104 | 59 | 262 | 4.0 | 13.0 | 0.00 | 0.11 | 0.09 | 82 | 1008.4 |
| 20260509161504 | 59 | 257 | 3.0 | 10.0 | 0.00 | 0.11 | 0.09 | 83 | 1008.4 |
| 20260509161204 | 58 | 260 | 5.0 | 13.0 | 0.00 | 0.11 | 0.09 | 83 | 1008.5 |
| 20260509160904 | 58 | 264 | 5.0 | 13.0 | 0.00 | 0.11 | 0.09 | 82 | 1008.4 |
| 20260509160304 | 58 | 266 | 5.0 | 13.0 | 0.00 | 0.11 | 0.09 | 82 | 1008.5 |
| 20260509155404 | 59 | 248 | 6.0 | 13.0 | 0.00 | 0.11 | 0.09 | 83 | 1008.3 |
| 20260509155104 | 59 | 248 | 6.0 | 13.0 | 0.00 | 0.11 | 0.09 | 82 | 1008.2 |
| 20260509154804 | 58 | 258 | 6.0 | 13.0 | 0.00 | 0.11 | 0.09 | 82 | 1008.2 |
| 20260509154504 | 58 | 262 | 5.0 | 13.0 | 0.00 | 0.11 | 0.09 | 82 | 1008.2 |
| 20260509153904 | 58 | 251 | 5.0 | 10.0 | 0.00 | 0.11 | 0.09 | 83 | 1008.1 |
| 20260509153304 | 58 | 254 | 5.0 | 11.0 | 0.00 | 0.11 | 0.09 | 83 | 1008.1 |
| 20260509152703 | 58 | 244 | 3.0 | 11.0 | 0.01 | 0.11 | 0.09 | 83 | 1008.1 |
| 20260509152404 | 59 | 249 | 4.0 | 12.0 | 0.01 | 0.11 | 0.09 | 83 | 1008.1 |
| 20260509152104 | 59 | 249 | 5.0 | 12.0 | 0.01 | 0.11 | 0.09 | 83 | 1008.1 |
| 20260509151805 | 58 | 250 | 6.0 | 13.0 | 0.01 | 0.11 | 0.09 | 83 | 1008.0 |
| 20260509151504 | 58 | 241 | 5.0 | 13.0 | 0.01 | 0.11 | 0.09 | 84 | 1008.0 |
| 20260509150904 | 58 | 243 | 5.0 | 10.0 | 0.01 | 0.11 | 0.09 | 83 | 1008.0 |
| 20260509150604 | 58 | 253 | 5.0 | 10.0 | 0.01 | 0.11 | 0.09 | 84 | 1008.0 |
| 20260509150005 | 58 | 260 | 5.0 | 9.0 | 0.01 | 0.11 | 0.09 | 85 | 1008.0 |
| 20260509145705 | 58 | 257 | 6.0 | 11.0 | 0.01 | 0.11 | 0.09 | 85 | 1007.9 |
| 20260509145404 | 58 | 253 | 6.0 | 12.0 | 0.02 | 0.11 | 0.09 | 85 | 1007.8 |
| 20260509144204 | 58 | 255 | 6.0 | 12.0 | 0.02 | 0.11 | 0.09 | 87 | 1007.8 |
| 20260509143904 | 57 | 253 | 7.0 | 15.0 | 0.02 | 0.11 | 0.09 | 87 | 1007.9 |
| 20260509143604 | 57 | 246 | 7.0 | 16.0 | 0.03 | 0.11 | 0.09 | 88 | 1007.9 |
| 20260509143304 | 57 | 245 | 6.0 | 16.0 | 0.02 | 0.10 | 0.08 | 88 | 1007.9 |
| 20260509143004 | 57 | 242 | 5.0 | 16.0 | 0.02 | 0.10 | 0.08 | 88 | 1008.0 |
| 20260509142404 | 57 | 243 | 4.0 | 10.0 | 0.02 | 0.10 | 0.08 | 88 | 1007.9 |
| 20260509142104 | 57 | 260 | 4.0 | 10.0 | 0.02 | 0.10 | 0.08 | 89 | 1007.9 |
| 20260509141804 | 57 | 263 | 3.0 | 10.0 | 0.02 | 0.10 | 0.08 | 91 | 1008.0 |
| 20260509141504 | 57 | 260 | 4.0 | 9.0 | 0.02 | 0.10 | 0.08 | 90 | 1007.9 |
| 20260509141204 | 56 | 254 | 4.0 | 9.0 | 0.02 | 0.10 | 0.08 | 92 | 1007.9 |
| 20260509140905 | 55 | 246 | 3.0 | 9.0 | 0.02 | 0.10 | 0.08 | 91 | 1008.0 |
| 20260509140604 | 55 | 253 | 3.0 | 7.0 | 0.02 | 0.10 | 0.08 | 91 | 1008.1 |
| 20260509140304 | 55 | 270 | 3.0 | 8.0 | 0.02 | 0.10 | 0.08 | 92 | 1008.1 |
| 20260509140005 | 55 | 270 | 3.0 | 8.0 | 0.02 | 0.10 | 0.08 | 92 | 1008.0 |
| 20260509135704 | 55 | 271 | 3.0 | 8.0 | 0.01 | 0.09 | 0.07 | 92 | 1008.1 |
| 20260509135404 | 55 | 269 | 3.0 | 7.0 | 0.02 | 0.09 | 0.07 | 92 | 1008.0 |
| 20260509135104 | 54 | 249 | 3.0 | 7.0 | 0.02 | 0.09 | 0.07 | 92 | 1008.1 |
| 20260509134805 | 54 | 237 | 3.0 | 7.0 | 0.02 | 0.09 | 0.07 | 92 | 1008.1 |
| 20260509134504 | 54 | 230 | 3.0 | 7.0 | 0.02 | 0.09 | 0.07 | 92 | 1008.2 |
| 20260509134204 | 54 | 239 | 3.0 | 9.0 | 0.02 | 0.09 | 0.07 | 92 | 1008.2 |
| 20260509133904 | 54 | 250 | 3.0 | 9.0 | 0.02 | 0.09 | 0.07 | 93 | 1008.2 |
| 20260509133604 | 54 | 243 | 3.0 | 9.0 | 0.01 | 0.08 | 0.06 | 93 | 1008.3 |
| 20260509133305 | 54 | 242 | 4.0 | 9.0 | 0.01 | 0.08 | 0.06 | 93 | 1008.2 |
| 20260509133005 | 54 | 235 | 4.0 | 12.0 | 0.01 | 0.08 | 0.06 | 93 | 1008.3 |
| 20260509132704 | 54 | 248 | 4.0 | 12.0 | 0.01 | 0.08 | 0.06 | 93 | 1008.3 |
| 20260509132404 | 54 | 250 | 4.0 | 12.0 | 0.01 | 0.08 | 0.06 | 93 | 1008.3 |
| 20260509131804 | 54 | 250 | 4.0 | 10.0 | 0.02 | 0.08 | 0.06 | 93 | 1008.4 |
| 20260509131504 | 54 | 248 | 5.0 | 9.0 | 0.02 | 0.08 | 0.06 | 93 | 1008.3 |
| 20260509131204 | 54 | 254 | 4.0 | 10.0 | 0.02 | 0.08 | 0.06 | 93 | 1008.4 |
| 20260509130605 | 54 | 253 | 4.0 | 10.0 | 0.02 | 0.08 | 0.06 | 93 | 1008.3 |
| 20260509125704 | 53 | 270 | 3.0 | 11.0 | 0.02 | 0.08 | 0.06 | 93 | 1008.4 |
| 20260509125104 | 53 | 270 | 3.0 | 10.0 | 0.01 | 0.07 | 0.05 | 94 | 1008.4 |
| 20260509124804 | 53 | 270 | 3.0 | 10.0 | 0.01 | 0.07 | 0.05 | 94 | 1008.4 |
| 20260509124504 | 53 | 276 | 3.0 | 10.0 | 0.01 | 0.07 | 0.05 | 94 | 1008.4 |
| 20260509124205 | 53 | 267 | 3.0 | 9.0 | 0.01 | 0.07 | 0.05 | 94 | 1008.4 |
| 20260509123904 | 53 | 267 | 3.0 | 8.0 | 0.01 | 0.07 | 0.05 | 94 | 1008.3 |
| 20260509123605 | 53 | 269 | 3.0 | 8.0 | 0.01 | 0.07 | 0.05 | 94 | 1008.4 |
| 20260509123304 | 53 | 274 | 3.0 | 8.0 | 0.02 | 0.07 | 0.05 | 94 | 1008.4 |
| 20260509123004 | 53 | 177 | 3.0 | 9.0 | 0.02 | 0.07 | 0.05 | 94 | 1008.3 |
| 20260509122704 | 52 | 136 | 3.0 | 9.0 | 0.02 | 0.07 | 0.05 | 94 | 1008.3 |
| 20260509122404 | 52 | 130 | 3.0 | 9.0 | 0.02 | 0.07 | 0.05 | 94 | 1008.2 |
| 20260509122104 | 52 | 127 | 2.0 | 9.0 | 0.02 | 0.07 | 0.05 | 94 | 1008.2 |
| 20260509121804 | 52 | 121 | 1.0 | 6.0 | 0.01 | 0.06 | 0.04 | 94 | 1008.4 |
| 20260509121504 | 52 | 131 | 1.0 | 6.0 | 0.01 | 0.06 | 0.04 | 94 | 1008.5 |
| 20260509120904 | 52 | 142 | 1.0 | 3.0 | 0.01 | 0.06 | 0.04 | 94 | 1008.7 |
| 20260509120604 | 52 | 144 | 1.0 | 3.0 | 0.01 | 0.06 | 0.04 | 94 | 1008.6 |
| 20260509120304 | 52 | 130 | 1.0 | 3.0 | 0.02 | 0.06 | 0.04 | 94 | 1008.7 |
| 20260509120004 | 52 | 117 | 1.0 | 3.0 | 0.02 | 0.06 | 0.04 | 94 | 1008.7 |
| 20260509115704 | 52 | 117 | 1.0 | 3.0 | 0.02 | 0.06 | 0.04 | 94 | 1008.7 |
| 20260509115104 | 52 | 127 | 1.0 | 4.0 | 0.02 | 0.06 | 0.04 | 94 | 1008.6 |
| 20260509114804 | 52 | 132 | 2.0 | 5.0 | 0.02 | 0.06 | 0.04 | 94 | 1008.7 |
| 20260509114204 | 52 | 144 | 1.0 | 5.0 | 0.02 | 0.06 | 0.04 | 94 | 1008.7 |
| 20260509113904 | 52 | 0 | 0.0 | 5.0 | 0.02 | 0.06 | 0.04 | 94 | 1008.7 |
| 20260509113604 | 52 | 144 | 1.0 | 4.0 | 0.01 | 0.05 | 0.03 | 94 | 1008.7 |
| 20260509113305 | 52 | 126 | 1.0 | 4.0 | 0.01 | 0.05 | 0.03 | 94 | 1008.7 |
| 20260509113004 | 52 | 132 | 1.0 | 4.0 | 0.01 | 0.05 | 0.03 | 94 | 1008.7 |
| 20260509112704 | 52 | 139 | 1.0 | 4.0 | 0.01 | 0.05 | 0.03 | 94 | 1008.6 |
| 20260509112405 | 52 | 144 | 1.0 | 4.0 | 0.01 | 0.05 | 0.03 | 93 | 1008.6 |
| 20260509111804 | 52 | 0 | 0.0 | 3.0 | 0.01 | 0.05 | 0.03 | 93 | 1008.6 |
| 20260509111504 | 52 | 0 | 0.0 | 3.0 | 0.01 | 0.05 | 0.03 | 93 | 1008.5 |
| 20260509111204 | 52 | 0 | 0.0 | 2.0 | 0.01 | 0.05 | 0.03 | 93 | 1008.4 |
| 20260509110904 | 52 | 192 | 1.0 | 3.0 | 0.01 | 0.05 | 0.03 | 94 | 1008.4 |
| 20260509110604 | 52 | 175 | 1.0 | 5.0 | 0.01 | 0.05 | 0.03 | 93 | 1008.3 |
| 20260509110304 | 52 | 149 | 1.0 | 5.0 | 0.00 | 0.04 | 0.02 | 93 | 1008.2 |
| 20260509110004 | 52 | 147 | 1.0 | 5.0 | 0.01 | 0.04 | 0.02 | 93 | 1008.3 |
| 20260509105704 | 52 | 150 | 1.0 | 5.0 | 0.01 | 0.04 | 0.02 | 94 | 1008.2 |
| 20260509105404 | 52 | 160 | 2.0 | 5.0 | 0.01 | 0.04 | 0.02 | 94 | 1008.2 |
| 20260509105104 | 52 | 154 | 2.0 | 8.0 | 0.01 | 0.04 | 0.02 | 94 | 1008.2 |
| 20260509104804 | 52 | 146 | 2.0 | 8.0 | 0.01 | 0.04 | 0.02 | 94 | 1008.3 |
| 20260509104204 | 52 | 0 | 0.0 | 2.0 | 0.01 | 0.04 | 0.02 | 94 | 1008.2 |
| 20260509103904 | 52 | 149 | 1.0 | 4.0 | 0.01 | 0.04 | 0.02 | 94 | 1008.1 |
| 20260509103604 | 52 | 139 | 1.0 | 4.0 | 0.01 | 0.04 | 0.02 | 94 | 1008.1 |
| 20260509103304 | 52 | 137 | 2.0 | 4.0 | 0.01 | 0.04 | 0.02 | 94 | 1008.1 |
| 20260509102704 | 52 | 132 | 2.0 | 5.0 | 0.01 | 0.04 | 0.02 | 94 | 1008.0 |
| 20260509102404 | 52 | 129 | 2.0 | 5.0 | 0.01 | 0.04 | 0.02 | 94 | 1008.0 |
| 20260509102104 | 52 | 128 | 1.0 | 4.0 | 0.01 | 0.04 | 0.02 | 94 | 1007.9 |
| 20260509101804 | 52 | 130 | 1.0 | 3.0 | 0.01 | 0.04 | 0.02 | 94 | 1008.0 |
| 20260509101504 | 52 | 130 | 1.0 | 3.0 | 0.01 | 0.04 | 0.02 | 94 | 1008.0 |
| 20260509100905 | 52 | 123 | 1.0 | 3.0 | 0.01 | 0.04 | 0.02 | 94 | 1008.0 |
| 20260509100604 | 52 | 126 | 1.0 | 2.0 | 0.01 | 0.04 | 0.02 | 94 | 1008.0 |
| 20260509100005 | 52 | 0 | 0.0 | 3.0 | 0.00 | 0.03 | 0.01 | 94 | 1008.2 |
| 20260509095704 | 52 | 0 | 0.0 | 3.0 | 0.00 | 0.03 | 0.01 | 94 | 1008.1 |
| 20260509095404 | 52 | 0 | 0.0 | 3.0 | 0.01 | 0.03 | 0.01 | 94 | 1008.2 |
| 20260509094804 | 52 | 0 | 0.0 | 2.0 | 0.01 | 0.03 | 0.01 | 94 | 1008.4 |
| 20260509094204 | 52 | 140 | 1.0 | 4.0 | 0.01 | 0.03 | 0.01 | 94 | 1008.4 |
| 20260509093904 | 52 | 142 | 1.0 | 4.0 | 0.01 | 0.03 | 0.01 | 94 | 1008.4 |
| 20260509093604 | 52 | 136 | 2.0 | 4.0 | 0.01 | 0.03 | 0.01 | 94 | 1008.5 |